Time;durP1;ratioP1;P1;durP2;ratioP2;P2;SDS_P1;SDS_P2;PMS_P1;PMS_P2;Temp;Humidity;BMP_temperature;BMP_pressure;BME280_temperature;BME280_humidity;BME280_pressure;Samples;Min_cycle;Max_cycle;Signal;HPM_P1;HPM_P2
2022/12/02 00:02:25;;;;;;;66.57;33.72;;;3.80;99.90;;;;;;5084809;28;20126;-45
2022/12/02 00:04:58;;;;;;;65.80;32.58;;;3.80;99.90;;;;;;5085094;28;20032;-45
2022/12/02 00:07:24;;;;;;;68.68;33.88;;;3.80;99.90;;;;;;5081380;28;20062;-46
2022/12/02 00:09:50;;;;;;;71.65;34.65;;;3.80;99.90;;;;;;5084964;28;20041;-46
2022/12/02 00:12:22;;;;;;;59.53;30.42;;;3.80;99.90;;;;;;5083904;28;20040;-45
2022/12/02 00:15:00;;;;;;;70.90;34.35;;;3.80;99.90;;;;;;5092687;28;20040;-48
2022/12/02 00:17:26;;;;;;;66.07;32.42;;;3.80;99.90;;;;;;5079592;28;20039;-48
2022/12/02 00:19:52;;;;;;;69.72;34.88;;;3.80;99.90;;;;;;5078917;28;20482;-46
2022/12/02 00:22:18;;;;;;;69.43;32.83;;;3.70;99.90;;;;;;5080130;28;20942;-48
2022/12/02 00:24:44;;;;;;;71.28;35.53;;;3.80;99.90;;;;;;5077313;28;20047;-50
2022/12/02 00:27:10;;;;;;;55.97;24.42;;;3.70;99.90;;;;;;5078961;28;20032;-47
2022/12/02 00:29:36;;;;;;;63.20;27.65;;;3.60;99.90;;;;;;5081793;28;20168;-46
2022/12/02 00:32:01;;;;;;;68.22;31.90;;;3.60;99.90;;;;;;5080737;28;20046;-47
2022/12/02 00:34:27;;;;;;;53.83;22.02;;;3.60;99.90;;;;;;5077137;28;20067;-49
2022/12/02 00:36:52;;;;;;;69.72;30.20;;;3.50;99.90;;;;;;5081729;28;20074;-46
2022/12/02 00:39:18;;;;;;;67.63;31.02;;;3.50;99.90;;;;;;5078186;28;20121;-45
2022/12/02 00:41:44;;;;;;;62.22;29.73;;;3.70;99.90;;;;;;5076885;28;20055;-46
2022/12/02 00:46:53;;;;;;;59.58;25.80;;;3.50;99.90;;;;;;5075707;28;20036;-47
2022/12/02 00:49:19;;;;;;;58.05;27.35;;;3.50;99.90;;;;;;5084198;28;20047;-48
2022/12/02 00:51:44;;;;;;;58.22;29.42;;;3.40;99.90;;;;;;5077625;28;20088;-46
2022/12/02 00:54:11;;;;;;;46.42;23.05;;;3.60;99.90;;;;;;5077496;28;20135;-47
2022/12/02 00:56:38;;;;;;;50.10;26.00;;;3.80;99.90;;;;;;5077278;28;20055;-47
2022/12/02 00:59:04;;;;;;;49.78;24.42;;;3.70;99.90;;;;;;5080763;28;20042;-45
2022/12/02 01:01:31;;;;;;;44.13;22.17;;;3.60;99.90;;;;;;5078159;28;20036;-48
2022/12/02 01:03:56;;;;;;;43.58;22.75;;;3.40;99.90;;;;;;5073517;28;20406;-46
2022/12/02 01:06:22;;;;;;;38.22;19.38;;;3.40;99.90;;;;;;5080203;28;20053;-46
2022/12/02 01:08:48;;;;;;;40.83;22.90;;;3.40;99.90;;;;;;5081325;28;20486;-46
2022/12/02 01:11:14;;;;;;;34.78;18.00;;;3.50;99.90;;;;;;5075473;28;20359;-47
2022/12/02 01:13:39;;;;;;;38.08;19.52;;;3.30;99.90;;;;;;5076855;28;21246;-47
2022/12/02 01:16:06;;;;;;;34.63;18.17;;;;;;;;;;5077752;28;20040;-45
2022/12/02 01:18:32;;;;;;;31.10;16.20;;;3.50;99.90;;;;;;5076763;28;20052;-46
2022/12/02 01:20:57;;;;;;;35.50;17.23;;;3.30;99.90;;;;;;5077807;28;20036;-46
2022/12/02 01:23:23;;;;;;;28.83;16.70;;;3.20;99.90;;;;;;5081846;28;20043;-47
2022/12/02 01:25:49;;;;;;;30.95;17.65;;;3.20;99.90;;;;;;5085959;28;20051;-46
2022/12/02 01:28:16;;;;;;;34.55;19.27;;;3.20;99.90;;;;;;5085521;28;20054;-46
2022/12/02 01:30:41;;;;;;;36.88;20.52;;;3.20;99.90;;;;;;5083521;28;20375;-46
2022/12/02 01:33:07;;;;;;;32.95;20.77;;;3.20;99.90;;;;;;5083689;28;20036;-46
2022/12/02 01:35:33;;;;;;;22.80;13.48;;;3.20;99.90;;;;;;5083442;28;20040;-45
2022/12/02 01:37:59;;;;;;;34.55;19.83;;;3.10;99.90;;;;;;5087485;28;20098;-49
2022/12/02 01:40:25;;;;;;;37.95;21.77;;;3.30;99.90;;;;;;5085486;28;20044;-46
2022/12/02 01:42:51;;;;;;;36.33;20.58;;;3.20;99.90;;;;;;5081155;28;20041;-46
2022/12/02 01:45:17;;;;;;;33.75;19.63;;;3.30;99.90;;;;;;5080044;28;20127;-47
2022/12/02 01:47:43;;;;;;;34.15;16.77;;;3.10;99.90;;;;;;5084518;28;20490;-47
2022/12/02 01:50:11;;;;;;;39.22;20.10;;;3.10;99.90;;;;;;5087877;28;20089;-47
2022/12/02 01:52:36;;;;;;;33.25;18.95;;;3.10;99.90;;;;;;5084263;28;20036;-46
2022/12/02 01:55:05;;;;;;;38.58;21.67;;;3.10;99.90;;;;;;5086495;28;20040;-47
2022/12/02 01:57:31;;;;;;;38.88;20.45;;;3.10;99.90;;;;;;5088246;28;20178;-47
2022/12/02 01:59:57;;;;;;;36.92;19.73;;;3.10;99.90;;;;;;5091783;28;20469;-46
2022/12/02 02:02:29;;;;;;;37.67;21.95;;;3.10;99.90;;;;;;5087393;28;20120;-48
2022/12/02 02:04:56;;;;;;;39.33;21.60;;;;;;;;;;5088316;28;20055;-48
2022/12/02 02:07:22;;;;;;;41.90;22.35;;;3.10;99.90;;;;;;5087766;28;20505;-46
2022/12/02 02:09:47;;;;;;;40.75;22.52;;;3.10;99.90;;;;;;5093522;28;20036;-46
2022/12/02 02:12:13;;;;;;;39.83;22.15;;;3.00;99.90;;;;;;5088358;28;20069;-47
2022/12/02 02:14:39;;;;;;;37.83;20.92;;;3.00;99.90;;;;;;5086328;28;20433;-46
2022/12/02 02:17:04;;;;;;;38.00;19.25;;;3.00;99.90;;;;;;5080521;28;20036;-49
2022/12/02 02:19:30;;;;;;;40.65;22.45;;;3.00;99.90;;;;;;5077851;28;20042;-46
2022/12/02 02:21:56;;;;;;;35.38;17.50;;;3.00;99.90;;;;;;5075361;28;20135;-45
2022/12/02 02:24:23;;;;;;;37.60;20.95;;;3.00;99.90;;;;;;5079031;28;20392;-46
2022/12/02 02:26:49;;;;;;;39.53;20.67;;;3.00;99.90;;;;;;5077471;28;20044;-47
2022/12/02 02:29:15;;;;;;;40.25;21.80;;;3.00;99.90;;;;;;5084562;28;20036;-47
2022/12/02 02:31:40;;;;;;;38.75;19.63;;;3.00;99.90;;;;;;5076242;28;20080;-47
2022/12/02 02:34:07;;;;;;;40.78;22.23;;;3.00;99.90;;;;;;5078667;28;20071;-48
2022/12/02 02:36:33;;;;;;;39.55;21.73;;;2.90;99.90;;;;;;5077964;28;20052;-46
2022/12/02 02:38:58;;;;;;;37.55;20.35;;;2.90;99.90;;;;;;5078615;28;20070;-47
2022/12/02 02:41:25;;;;;;;37.20;21.90;;;2.90;99.90;;;;;;5079079;28;20468;-45
2022/12/02 02:43:50;;;;;;;38.10;21.15;;;2.90;99.90;;;;;;5079549;28;20123;-46
2022/12/02 02:46:16;;;;;;;31.90;18.75;;;2.90;99.90;;;;;;5091582;28;20127;-47
2022/12/02 02:48:42;;;;;;;38.95;21.67;;;2.90;99.90;;;;;;5087452;28;20062;-45
2022/12/02 02:51:09;;;;;;;40.25;20.25;;;2.90;99.90;;;;;;5087997;28;20052;-46
2022/12/02 02:53:35;;;;;;;37.72;19.02;;;2.90;99.90;;;;;;5090198;28;20047;-48
2022/12/02 02:56:01;;;;;;;37.33;20.15;;;2.90;99.90;;;;;;5090508;28;20040;-46
2022/12/02 02:58:27;;;;;;;37.40;21.48;;;2.90;99.90;;;;;;5081224;28;20044;-47
2022/12/02 03:01:27;;;;;;;39.28;20.00;;;2.90;99.90;;;;;;5082896;28;20052;-45
2022/12/02 03:04:07;;;;;;;36.17;19.52;;;2.90;99.90;;;;;;5080139;28;20067;-45
2022/12/02 03:06:36;;;;;;;35.75;20.02;;;2.80;99.90;;;;;;5079338;28;20043;-46
2022/12/02 03:09:03;;;;;;;34.15;19.98;;;2.80;99.90;;;;;;5088431;28;20040;-45
2022/12/02 03:11:30;;;;;;;34.88;18.08;;;2.80;99.90;;;;;;5094334;28;20078;-45
2022/12/02 03:13:56;;;;;;;38.30;20.80;;;2.80;99.90;;;;;;5083168;28;20126;-47
2022/12/02 03:16:24;;;;;;;36.38;21.05;;;2.80;99.90;;;;;;5080949;28;20459;-45
2022/12/02 03:18:51;;;;;;;29.35;14.45;;;2.80;99.90;;;;;;5085937;28;20055;-46
2022/12/02 03:21:18;;;;;;;36.38;20.63;;;2.80;99.90;;;;;;5080840;28;20124;-48
2022/12/02 03:23:45;;;;;;;36.77;20.13;;;2.80;99.90;;;;;;5089859;28;20055;-47
2022/12/02 03:26:13;;;;;;;34.50;19.02;;;2.80;99.90;;;;;;5085163;28;20290;-46
2022/12/02 03:28:39;;;;;;;34.90;19.50;;;2.80;99.90;;;;;;5080471;28;20043;-47
2022/12/02 03:31:04;;;;;;;31.70;18.88;;;2.80;99.90;;;;;;5079630;28;20100;-46
2022/12/02 03:33:30;;;;;;;33.50;17.90;;;2.80;99.90;;;;;;5080868;28;20119;-46
2022/12/02 03:35:56;;;;;;;32.08;18.27;;;2.80;99.90;;;;;;5079797;28;20548;-48
2022/12/02 03:38:22;;;;;;;16.58;9.00;;;2.80;99.90;;;;;;5082775;28;20074;-45
2022/12/02 03:40:48;;;;;;;34.17;15.88;;;2.80;99.90;;;;;;5080224;28;20047;-46
2022/12/02 03:43:14;;;;;;;35.70;19.98;;;2.80;99.90;;;;;;5079370;28;20052;-47
2022/12/02 03:45:42;;;;;;;34.40;19.13;;;2.80;99.90;;;;;;5077430;28;20047;-46
2022/12/02 03:48:10;;;;;;;33.28;18.33;;;2.80;99.90;;;;;;5086687;28;20044;-47
2022/12/02 03:50:36;;;;;;;36.97;18.58;;;2.80;99.90;;;;;;5086076;28;20040;-45
2022/12/02 03:53:02;;;;;;;31.02;16.27;;;2.80;99.90;;;;;;5091004;28;20417;-45
2022/12/02 03:55:28;;;;;;;33.30;18.58;;;2.80;99.90;;;;;;5088915;28;20055;-48
2022/12/02 03:57:53;;;;;;;39.05;21.38;;;2.80;99.90;;;;;;5087776;28;20035;-46
2022/12/02 04:00:19;;;;;;;38.80;22.27;;;2.80;99.90;;;;;;5087105;28;20498;-47
2022/12/02 04:02:45;;;;;;;39.03;22.75;;;2.80;99.90;;;;;;5090460;28;20040;-46
2022/12/02 04:05:11;;;;;;;39.38;21.30;;;2.80;99.90;;;;;;5087836;28;20181;-48
2022/12/02 04:07:36;;;;;;;45.20;21.67;;;2.80;99.90;;;;;;5087916;28;20044;-48
2022/12/02 04:10:03;;;;;;;48.35;24.23;;;2.80;99.90;;;;;;5088999;28;20041;-46
2022/12/02 04:12:28;;;;;;;40.97;20.95;;;2.80;99.90;;;;;;5081268;28;20097;-47
2022/12/02 04:14:54;;;;;;;46.65;23.80;;;2.80;99.90;;;;;;5083937;28;20135;-47
2022/12/02 04:17:19;;;;;;;44.92;23.25;;;2.80;99.90;;;;;;5082962;28;20047;-48
2022/12/02 04:19:45;;;;;;;45.38;24.42;;;2.70;99.90;;;;;;5083848;28;20123;-46
2022/12/02 04:22:11;;;;;;;49.70;23.58;;;2.80;99.90;;;;;;5103714;28;20040;-47
2022/12/02 04:24:36;;;;;;;40.85;21.50;;;2.80;99.90;;;;;;5083666;28;20040;-46
2022/12/02 04:27:02;;;;;;;49.15;23.20;;;2.80;99.90;;;;;;5064323;28;20107;-46
2022/12/02 04:29:27;;;;;;;44.47;20.13;;;2.70;99.90;;;;;;5080190;28;20032;-49
2022/12/02 04:31:53;;;;;;;47.65;23.45;;;2.70;99.90;;;;;;5081322;28;20065;-48
2022/12/02 04:34:19;;;;;;;46.70;21.17;;;2.70;99.90;;;;;;5077788;28;20166;-46
2022/12/02 04:36:44;;;;;;;46.53;23.00;;;2.70;99.90;;;;;;5079786;28;20044;-46
2022/12/02 04:39:10;;;;;;;47.38;23.02;;;2.70;99.90;;;;;;5093692;28;20047;-45
2022/12/02 04:41:35;;;;;;;51.75;24.05;;;2.70;99.90;;;;;;5077070;28;20043;-48
2022/12/02 04:44:02;;;;;;;42.65;20.90;;;2.70;99.90;;;;;;5083189;28;20183;-46
2022/12/02 04:46:28;;;;;;;44.28;20.08;;;2.70;99.90;;;;;;5081303;28;20086;-47
2022/12/02 04:48:53;;;;;;;42.63;19.42;;;2.70;99.90;;;;;;5086638;28;20039;-45
2022/12/02 04:51:19;;;;;;;45.10;22.05;;;2.70;99.90;;;;;;5086323;28;20127;-48
2022/12/02 04:53:44;;;;;;;47.65;22.67;;;2.70;99.90;;;;;;5083604;28;20040;-47
2022/12/02 04:56:10;;;;;;;45.15;21.50;;;2.70;99.90;;;;;;5081962;28;20113;-48
2022/12/02 04:58:35;;;;;;;44.42;21.13;;;2.70;99.90;;;;;;5081161;28;20043;-48
2022/12/02 05:01:01;;;;;;;34.28;15.45;;;2.70;99.90;;;;;;5087896;28;20202;-45
2022/12/02 05:03:27;;;;;;;39.22;18.73;;;2.70;99.90;;;;;;5088152;28;20040;-47
2022/12/02 05:05:52;;;;;;;39.95;20.00;;;2.70;99.90;;;;;;5088012;28;20513;-46
2022/12/02 05:08:18;;;;;;;48.00;21.20;;;2.70;99.90;;;;;;5090421;28;20039;-47
2022/12/02 05:10:44;;;;;;;42.58;20.75;;;2.70;99.90;;;;;;5087241;28;20070;-46
2022/12/02 05:13:09;;;;;;;44.17;21.52;;;2.70;99.90;;;;;;5089097;28;20040;-46
2022/12/02 05:15:35;;;;;;;30.63;13.95;;;2.60;99.90;;;;;;5081445;28;20519;-50
2022/12/02 05:18:01;;;;;;;43.45;21.65;;;2.70;99.90;;;;;;5090320;28;20123;-46
2022/12/02 05:20:26;;;;;;;45.40;21.13;;;2.70;99.90;;;;;;5085411;28;20037;-46
2022/12/02 05:22:52;;;;;;;43.90;21.17;;;2.60;99.90;;;;;;5087491;28;20040;-46
2022/12/02 05:25:17;;;;;;;43.97;21.17;;;2.60;99.90;;;;;;5085744;28;20067;-46
2022/12/02 05:27:43;;;;;;;47.78;21.33;;;2.60;99.90;;;;;;5090465;28;20032;-46
2022/12/02 05:30:11;;;;;;;43.58;20.13;;;2.60;99.90;;;;;;5086883;28;20076;-46
2022/12/02 05:32:36;;;;;;;47.90;21.08;;;2.60;99.90;;;;;;5086659;28;20036;-46
2022/12/02 05:35:03;;;;;;;42.35;23.20;;;2.60;99.90;;;;;;5093351;28;20051;-47
2022/12/02 05:37:28;;;;;;;48.85;21.70;;;2.70;99.90;;;;;;5091143;28;20048;-46
2022/12/02 05:39:54;;;;;;;47.30;20.50;;;2.60;99.90;;;;;;5091634;28;20429;-49
2022/12/02 05:42:20;;;;;;;46.88;21.63;;;2.70;99.90;;;;;;5088507;28;20048;-50
2022/12/02 05:44:45;;;;;;;44.67;22.70;;;2.70;99.90;;;;;;5090354;28;20048;-47
2022/12/02 05:47:17;;;;;;;49.90;25.20;;;2.60;99.90;;;;;;5086484;28;20101;-48
2022/12/02 05:49:45;;;;;;;54.65;20.58;;;2.70;99.90;;;;;;5104591;28;20044;-47
2022/12/02 05:52:29;;;;;;;55.15;23.85;;;2.70;99.90;;;;;;5090447;28;20031;-49
2022/12/02 05:54:57;;;;;;;30.40;14.60;;;2.70;99.90;;;;;;5082602;28;20036;-48
2022/12/02 05:57:24;;;;;;;;;;;2.70;99.90;;;;;;5083389;28;20069;-47
2022/12/02 06:00:12;;;;;;;48.83;23.60;;;2.90;99.90;;;;;;5083110;28;19920;-47
2022/12/02 06:02:42;;;;;;;50.28;23.52;;;2.70;99.90;;;;;;5082049;28;20393;-47
2022/12/02 06:05:14;;;;;;;48.92;22.17;;;2.80;99.90;;;;;;5081537;28;20032;-48
2022/12/02 06:07:40;;;;;;;47.58;22.92;;;2.90;99.90;;;;;;5082342;28;20040;-49
2022/12/02 06:10:31;;;;;;;44.47;19.08;;;2.50;99.90;;;;;;5082352;28;20051;-50
2022/12/02 06:13:01;;;;;;;37.75;17.20;;;2.80;99.90;;;;;;5082741;28;20035;-46
2022/12/02 06:15:34;;;;;;;55.40;24.98;;;2.70;99.90;;;;;;5082073;28;20553;-46
2022/12/02 06:17:59;;;;;;;48.67;19.48;;;2.70;99.90;;;;;;5082716;28;20039;-47
2022/12/02 06:20:31;;;;;;;55.85;24.40;;;2.60;99.90;;;;;;5084468;28;20523;-48
2022/12/02 06:22:58;;;;;;;46.78;20.65;;;2.50;99.90;;;;;;5084229;28;20124;-47
2022/12/02 06:25:30;;;;;;;55.15;25.92;;;2.60;99.90;;;;;;5082603;28;20463;-46
2022/12/02 06:28:05;;;;;;;54.22;24.25;;;2.70;99.90;;;;;;5080467;28;20147;-46
2022/12/02 06:30:30;;;;;;;75.55;41.40;;;2.60;99.90;;;;;;5080915;28;20036;-46
2022/12/02 06:32:58;;;;;;;66.82;37.10;;;2.60;99.90;;;;;;5081078;28;20036;-46
2022/12/02 06:35:30;;;;;;;56.35;29.50;;;2.70;99.90;;;;;;5080134;28;20089;-46
2022/12/02 06:37:59;;;;;;;47.22;21.58;;;2.60;99.90;;;;;;5086493;28;20055;-46
2022/12/02 06:40:29;;;;;;;53.47;24.75;;;2.60;99.90;;;;;;5081444;28;20040;-48
2022/12/02 06:43:00;;;;;;;53.88;24.33;;;2.60;99.90;;;;;;5081372;28;20547;-47
2022/12/02 06:45:31;;;;;;;55.55;26.30;;;2.50;99.90;;;;;;5081581;28;20099;-47
2022/12/02 06:48:26;;;;;;;49.75;25.33;;;2.60;99.90;;;;;;5084742;28;20394;-47
2022/12/02 06:50:54;;;;;;;50.33;21.13;;;2.60;99.90;;;;;;5084981;28;20036;-46
2022/12/02 06:53:23;;;;;;;;;;;2.70;99.90;;;;;;5086961;28;20044;-47
2022/12/02 06:55:57;;;;;;;51.63;21.75;;;2.70;99.90;;;;;;5092015;28;20019;-48
2022/12/02 06:58:38;;;;;;;59.55;28.45;;;2.80;99.90;;;;;;5082383;28;20055;-48
2022/12/02 07:01:07;;;;;;;55.25;25.35;;;2.60;99.90;;;;;;5068773;28;20044;-47
2022/12/02 07:03:35;;;;;;;57.90;25.25;;;2.70;99.90;;;;;;5080595;28;20078;-48
2022/12/02 07:06:24;;;;;;;55.58;23.10;;;2.70;99.90;;;;;;5083995;28;20131;-49
2022/12/02 07:08:50;;;;;;;48.00;20.60;;;2.70;99.90;;;;;;5079643;28;20405;-47
2022/12/02 07:11:49;;;;;;;55.83;24.92;;;2.70;99.90;;;;;;5079241;28;20040;-47
2022/12/02 07:14:44;;;;;;;51.45;19.83;;;2.60;99.90;;;;;;5079033;28;20040;-48
2022/12/02 07:17:35;;;;;;;57.80;25.00;;;2.60;99.90;;;;;;5077718;28;20044;-46
2022/12/02 07:20:12;;;;;;;63.83;28.02;;;2.60;99.90;;;;;;5080449;28;20040;-46
2022/12/02 07:22:47;;;;;;;56.28;26.95;;;2.70;99.90;;;;;;5082009;28;20068;-48
2022/12/02 07:25:43;;;;;;;63.08;27.02;;;2.60;99.90;;;;;;5087126;28;20508;-47
2022/12/02 07:28:35;;;;;;;54.33;24.30;;;2.70;99.90;;;;;;5067618;28;20048;-47
2022/12/02 07:31:21;;;;;;;58.72;28.33;;;2.60;99.90;;;;;;5091815;28;20044;-47
2022/12/02 07:33:47;;;;;;;58.25;27.05;;;2.60;99.90;;;;;;5086674;28;20048;-48
2022/12/02 07:36:13;;;;;;;56.33;27.45;;;2.70;99.90;;;;;;5087737;28;20528;-48
2022/12/02 07:38:38;;;;;;;56.75;26.83;;;2.60;99.90;;;;;;5081254;28;20044;-48
2022/12/02 07:41:04;;;;;;;54.30;23.30;;;2.60;99.90;;;;;;5080979;28;20074;-47
2022/12/02 07:43:31;;;;;;;64.03;27.98;;;2.60;99.90;;;;;;5085613;28;20555;-48
2022/12/02 07:45:57;;;;;;;53.60;22.23;;;2.60;99.90;;;;;;5077585;28;20044;-47
2022/12/02 07:48:22;;;;;;;58.38;27.23;;;2.70;99.90;;;;;;5086455;28;20036;-47
2022/12/02 07:50:48;;;;;;;60.88;28.25;;;2.60;99.90;;;;;;5084959;28;20032;-46
2022/12/02 07:53:14;;;;;;;58.50;27.35;;;2.60;99.90;;;;;;5084892;28;20040;-46
2022/12/02 07:55:40;;;;;;;56.60;26.50;;;2.80;99.90;;;;;;5101607;28;20474;-46
2022/12/02 07:58:06;;;;;;;43.67;19.50;;;2.70;99.90;;;;;;5081767;28;20036;-47
2022/12/02 08:00:31;;;;;;;63.47;27.08;;;2.60;99.90;;;;;;5083366;28;20374;-47
2022/12/02 08:02:57;;;;;;;60.38;28.40;;;2.60;99.90;;;;;;5085419;28;20044;-47
2022/12/02 08:05:23;;;;;;;58.42;26.92;;;2.70;99.90;;;;;;5085230;28;20051;-46
2022/12/02 08:07:49;;;;;;;55.88;24.70;;;2.70;99.90;;;;;;5083912;28;20063;-46
2022/12/02 08:10:16;;;;;;;59.22;27.10;;;2.60;99.90;;;;;;5089666;28;20040;-46
2022/12/02 08:12:41;;;;;;;59.88;25.88;;;2.50;99.90;;;;;;5078536;28;20170;-46
2022/12/02 08:15:09;;;;;;;58.15;26.77;;;2.60;99.90;;;;;;5086619;28;20131;-47
2022/12/02 08:17:35;;;;;;;61.90;26.73;;;2.70;99.90;;;;;;5083579;28;20047;-48
2022/12/02 08:20:01;;;;;;;58.65;26.90;;;2.70;99.90;;;;;;5074107;28;20051;-47
2022/12/02 08:22:27;;;;;;;52.65;26.15;;;2.60;99.90;;;;;;5090177;28;20085;-47
2022/12/02 08:24:54;;;;;;;52.53;25.15;;;2.70;99.90;;;;;;5083500;28;20134;-47
2022/12/02 08:27:20;;;;;;;56.40;26.13;;;2.60;99.90;;;;;;5085206;28;20180;-48
2022/12/02 08:29:47;;;;;;;51.85;23.77;;;2.70;99.90;;;;;;5079003;28;20119;-47
2022/12/02 08:32:13;;;;;;;48.90;22.58;;;2.70;99.90;;;;;;5096078;28;20113;-49
2022/12/02 08:34:38;;;;;;;50.38;24.17;;;2.60;99.90;;;;;;5085717;28;21555;-48
2022/12/02 08:37:04;;;;;;;46.58;20.25;;;2.60;99.90;;;;;;5084471;28;20534;-49
2022/12/02 08:39:30;;;;;;;53.28;26.42;;;2.70;99.90;;;;;;5083526;28;20039;-49
2022/12/02 08:41:55;;;;;;;50.28;24.88;;;2.70;99.90;;;;;;5086049;28;20062;-46
2022/12/02 08:44:21;;;;;;;58.63;25.85;;;2.70;99.90;;;;;;5086311;28;20052;-47
2022/12/02 08:46:46;;;;;;;53.08;23.20;;;2.70;99.90;;;;;;5088099;28;20037;-49
2022/12/02 08:49:12;;;;;;;46.25;19.95;;;2.70;99.90;;;;;;5085047;28;20063;-47
2022/12/02 08:51:37;;;;;;;59.13;26.83;;;2.70;99.90;;;;;;5093712;28;20040;-47
2022/12/02 08:54:03;;;;;;;54.08;26.67;;;2.80;99.90;;;;;;5090343;28;20046;-47
2022/12/02 08:56:29;;;;;;;52.75;24.10;;;2.80;99.90;;;;;;5094796;28;20044;-47
2022/12/02 08:58:54;;;;;;;54.40;24.67;;;2.80;99.90;;;;;;5092367;28;20424;-47
2022/12/02 09:01:20;;;;;;;53.70;24.20;;;2.80;99.90;;;;;;5081630;28;20614;-47
2022/12/02 09:03:45;;;;;;;51.78;20.70;;;2.80;99.90;;;;;;5086098;28;20042;-48
2022/12/02 09:06:11;;;;;;;47.85;22.10;;;2.80;99.90;;;;;;5087612;28;20047;-47
2022/12/02 09:08:36;;;;;;;50.38;24.15;;;2.70;99.90;;;;;;5092732;28;20119;-47
2022/12/02 09:11:02;;;;;;;57.65;26.08;;;2.80;99.90;;;;;;5085406;28;20052;-48
2022/12/02 09:13:28;;;;;;;50.42;20.52;;;2.80;99.90;;;;;;5083300;28;20102;-49
2022/12/02 09:15:53;;;;;;;60.63;26.77;;;2.70;99.90;;;;;;5088651;28;20068;-47
2022/12/02 09:18:19;;;;;;;52.40;21.27;;;2.70;99.90;;;;;;5088864;28;20067;-47
2022/12/02 09:20:45;;;;;;;54.33;27.55;;;2.70;99.90;;;;;;5087340;28;20077;-49
2022/12/02 09:23:10;;;;;;;59.72;29.17;;;2.70;99.90;;;;;;5086515;28;20052;-48
2022/12/02 09:25:36;;;;;;;56.03;24.95;;;2.70;99.90;;;;;;5085778;28;20058;-49
2022/12/02 09:28:01;;;;;;;65.10;29.85;;;2.70;99.90;;;;;;5084827;28;20108;-47
2022/12/02 09:30:27;;;;;;;63.30;29.83;;;2.70;99.90;;;;;;5072946;28;20123;-50
2022/12/02 09:32:53;;;;;;;56.92;28.13;;;2.70;99.90;;;;;;5077323;28;20410;-48
2022/12/02 09:35:18;;;;;;;63.10;27.48;;;2.60;99.90;;;;;;5081057;28;20041;-48
2022/12/02 09:37:44;;;;;;;64.05;28.60;;;;;;;;;;5079030;28;20135;-47
2022/12/02 09:40:10;;;;;;;56.78;23.58;;;2.50;99.90;;;;;;5077755;28;20051;-49
2022/12/02 09:42:36;;;;;;;45.70;21.85;;;2.70;99.90;;;;;;5084807;28;20048;-50
2022/12/02 09:45:02;;;;;;;59.13;25.55;;;2.60;99.90;;;;;;5084264;28;20652;-50
2022/12/02 09:47:28;;;;;;;62.00;25.45;;;2.60;99.90;;;;;;5080403;28;20094;-49
2022/12/02 09:49:54;;;;;;;66.30;30.15;;;2.50;99.90;;;;;;5079493;28;20044;-47
2022/12/02 09:52:25;;;;;;;63.22;26.65;;;2.60;99.90;;;;;;5090920;28;20039;-48
2022/12/02 09:54:54;;;;;;;54.08;23.45;;;2.70;99.90;;;;;;5090063;28;20580;-49
2022/12/02 09:57:21;;;;;;;58.88;24.38;;;;;;;;;;5086823;28;20501;-48
2022/12/02 09:59:48;;;;;;;60.50;26.60;;;2.60;99.90;;;;;;5087384;28;20050;-48
2022/12/02 10:02:27;;;;;;;37.85;19.50;;;2.50;99.90;;;;;;5079829;28;20048;-48
2022/12/02 10:05:03;;;;;;;42.38;20.63;;;2.40;99.90;;;;;;5081341;28;20048;-49
2022/12/02 10:07:29;;;;;;;45.47;21.40;;;2.30;99.90;;;;;;5083362;28;20036;-47
2022/12/02 10:09:55;;;;;;;44.22;22.58;;;2.30;99.90;;;;;;5087235;28;20528;-47
2022/12/02 10:12:20;;;;;;;41.22;18.83;;;2.20;99.90;;;;;;5081779;28;20115;-48
2022/12/02 10:14:49;;;;;;;49.33;20.48;;;2.20;99.90;;;;;;5086433;28;20032;-47
2022/12/02 10:17:19;;;;;;;50.50;22.20;;;;;;;;;;5084331;28;20044;-47
2022/12/02 10:19:46;;;;;;;36.78;17.25;;;2.50;99.90;;;;;;5096855;28;20096;-47
2022/12/02 10:22:19;;;;;;;39.72;17.48;;;2.30;99.90;;;;;;5078677;28;20122;-47
2022/12/02 10:24:45;;;;;;;43.30;19.90;;;2.30;99.90;;;;;;5085795;28;20048;-48
2022/12/02 10:27:24;;;;;;;35.97;16.30;;;2.10;99.90;;;;;;5081192;28;20109;-46
2022/12/02 10:29:50;;;;;;;23.85;11.75;;;2.10;99.90;;;;;;5083174;28;20063;-48
2022/12/02 10:32:21;;;;;;;34.20;16.98;;;2.10;99.90;;;;;;5081014;28;20446;-47
2022/12/02 10:35:08;;;;;;;30.48;15.30;;;2.10;99.90;;;;;;5079962;28;20414;-46
2022/12/02 10:37:34;;;;;;;37.58;17.83;;;2.10;99.90;;;;;;5082679;28;20059;-47
2022/12/02 10:40:20;;;;;;;38.45;18.45;;;2.20;99.90;;;;;;5092114;28;20135;-47
2022/12/02 10:42:46;;;;;;;40.33;18.58;;;2.20;99.90;;;;;;5087850;28;20040;-49
2022/12/02 10:45:23;;;;;;;32.28;14.68;;;2.30;99.90;;;;;;5083023;28;20509;-47
2022/12/02 10:47:50;;;;;;;33.50;15.10;;;2.20;99.90;;;;;;5080296;28;20050;-48
2022/12/02 10:50:23;;;;;;;37.10;17.80;;;2.20;99.90;;;;;;5085141;28;20300;-48
2022/12/02 10:52:57;;;;;;;36.05;16.48;;;2.20;99.90;;;;;;5085993;28;20052;-47
2022/12/02 10:55:25;;;;;;;34.67;17.73;;;2.20;99.90;;;;;;5085266;28;20055;-47
2022/12/02 10:57:51;;;;;;;34.60;15.30;;;2.20;99.90;;;;;;5085130;28;20047;-47
2022/12/02 11:00:19;;;;;;;30.02;15.80;;;2.10;99.90;;;;;;5086182;28;20436;-46
2022/12/02 11:02:53;;;;;;;35.17;17.35;;;2.10;99.90;;;;;;5086700;28;20547;-46
2022/12/02 11:05:21;;;;;;;28.33;14.52;;;2.10;99.90;;;;;;5084081;28;20084;-48
2022/12/02 11:07:54;;;;;;;;;;;2.10;99.90;;;;;;5083589;28;20040;-47
2022/12/02 11:10:22;;;;;;;41.30;20.08;;;2.20;99.90;;;;;;5063972;28;19931;-46
2022/12/02 11:12:48;;;;;;;;;;;2.30;99.90;;;;;;5080401;28;20093;-46
2022/12/02 11:15:40;;;;;;;36.38;17.42;;;2.00;99.90;;;;;;5088345;28;19924;-47
2022/12/02 11:18:11;;;;;;;41.15;20.05;;;;;;;;;;5088091;28;20060;-46
2022/12/02 11:20:41;;;;;;;29.60;16.63;;;2.20;99.90;;;;;;5086539;28;20445;-46
2022/12/02 11:23:17;;;;;;;28.63;15.27;;;2.40;99.90;;;;;;5090396;28;20402;-46
2022/12/02 11:25:43;;;;;;;32.05;17.17;;;2.30;99.90;;;;;;5092710;28;20047;-46
2022/12/02 11:28:36;;;;;;;38.75;18.02;;;2.30;99.90;;;;;;5092369;28;20039;-46
2022/12/02 11:31:10;;;;;;;31.92;15.23;;;2.20;99.90;;;;;;5090354;28;20055;-46
2022/12/02 11:33:42;;;;;;;45.65;22.95;;;2.30;99.90;;;;;;5093242;28;20055;-47
2022/12/02 11:36:08;;;;;;;40.53;20.65;;;2.50;99.90;;;;;;5092119;28;20056;-46
2022/12/02 11:38:51;;;;;;;38.63;19.30;;;2.50;99.90;;;;;;5094209;28;20415;-46
2022/12/02 11:41:23;;;;;;;44.83;21.00;;;2.30;99.90;;;;;;5094189;28;20056;-46
2022/12/02 11:43:52;;;;;;;48.60;21.58;;;2.30;99.90;;;;;;5072535;28;20472;-46
2022/12/02 11:46:44;;;;;;;46.47;23.20;;;2.50;99.90;;;;;;5093252;28;20044;-46
2022/12/02 11:49:38;;;;;;;49.90;23.92;;;2.40;99.90;;;;;;5090397;28;20190;-46
2022/12/02 11:52:05;;;;;;;52.97;25.70;;;2.30;99.90;;;;;;5071671;28;20406;-46
2022/12/02 11:54:39;;;;;;;54.83;27.50;;;2.50;99.90;;;;;;5070165;28;20044;-47
2022/12/02 11:57:05;;;;;;;51.92;25.75;;;2.40;99.90;;;;;;5093817;28;20402;-46
2022/12/02 11:59:35;;;;;;;55.30;27.02;;;2.40;99.90;;;;;;5076944;28;20055;-48
2022/12/02 12:02:08;;;;;;;55.60;27.63;;;2.40;99.90;;;;;;5093563;28;20060;-47
2022/12/02 12:04:34;;;;;;;50.80;23.48;;;2.40;99.90;;;;;;5089740;28;20409;-46
2022/12/02 12:07:00;;;;;;;48.58;23.55;;;2.30;99.90;;;;;;5082927;28;20043;-46
2022/12/02 12:09:26;;;;;;;57.47;27.38;;;2.50;99.90;;;;;;5082268;28;20047;-46
2022/12/02 12:12:13;;;;;;;57.50;28.42;;;2.40;99.90;;;;;;5095799;28;20063;-47
2022/12/02 12:15:02;;;;;;;59.60;29.98;;;2.40;99.90;;;;;;5093852;28;20044;-46
2022/12/02 12:17:28;;;;;;;52.55;24.15;;;;;;;;;;5089665;28;20417;-47
2022/12/02 12:19:54;;;;;;;45.78;22.85;;;2.40;99.90;;;;;;5095456;28;20076;-46
2022/12/02 12:22:28;;;;;;;59.42;30.85;;;2.40;99.90;;;;;;5093589;28;20439;-47
2022/12/02 12:25:14;;;;;;;65.15;32.90;;;2.40;99.90;;;;;;5095581;28;20048;-46
2022/12/02 12:27:40;;;;;;;56.95;26.48;;;2.40;99.90;;;;;;5095675;28;20048;-46
2022/12/02 12:30:11;;;;;;;46.53;21.55;;;2.40;99.90;;;;;;5093624;28;20115;-46
2022/12/02 12:32:37;;;;;;;61.45;30.15;;;2.40;99.90;;;;;;5093569;28;20032;-46
2022/12/02 12:35:03;;;;;;;65.35;32.85;;;2.40;99.90;;;;;;5095301;28;20036;-47
2022/12/02 12:37:28;;;;;;;57.97;25.80;;;2.40;99.90;;;;;;5093868;28;20048;-48
2022/12/02 12:39:54;;;;;;;68.78;33.28;;;2.40;99.90;;;;;;5094929;28;20087;-47
2022/12/02 12:42:19;;;;;;;67.63;30.95;;;2.50;99.90;;;;;;5094701;28;20065;-46
2022/12/02 12:44:45;;;;;;;60.78;26.90;;;2.50;99.90;;;;;;5092545;28;20051;-46
2022/12/02 12:47:11;;;;;;;61.10;30.92;;;2.50;99.90;;;;;;5094614;28;20047;-46
2022/12/02 12:49:36;;;;;;;66.50;31.42;;;2.50;99.90;;;;;;5094882;28;20583;-50
2022/12/02 12:52:02;;;;;;;57.20;30.17;;;2.40;99.90;;;;;;5094730;28;20044;-50